This is the latest recevied weather packets stored in our database for station/object EA7AVH-10. If no packets are shown the sender has not sent any weather packets the latest 10 day(s).
| Time | Temp. | Humidity | Pressure | Rain* | Wind** | Luminosity | Snow |
|---|---|---|---|---|---|---|---|
| 1777614431 | 14.44° C | 78% | 926.5 hPa | - | - | - | - |
| 1777613530 | 13.89° C | 78% | 926.3 hPa | - | - | - | - |
| 1777612629 | 14.44° C | 78% | 926.2 hPa | - | - | - | - |
| 1777611747 | 13.89° C | 78% | 925.7 hPa | - | - | - | - |
| 1777610846 | 13.89° C | 79% | 925.7 hPa | - | - | - | - |
| 1777609945 | 13.89° C | 78% | 925.7 hPa | - | - | - | - |
| 1777609044 | 13.89° C | 79% | 925.6 hPa | - | - | - | - |
| 1777608144 | 13.89° C | 78% | 925.5 hPa | - | - | - | - |
| 1777607243 | 13.89° C | 78% | 925.4 hPa | - | - | - | - |
| 1777606342 | 14.44° C | 78% | 925.5 hPa | - | - | - | - |
| 1777605441 | 15° C | 78% | 925.5 hPa | - | - | - | - |
| 1777604540 | 15° C | 78% | 925.5 hPa | - | - | - | - |
| 1777603640 | 15.56° C | 77% | 925.5 hPa | - | - | - | - |
| 1777602739 | 16.11° C | 77% | 925.5 hPa | - | - | - | - |
| 1777601838 | 15.56° C | 77% | 925.4 hPa | - | - | - | - |
| 1777600937 | 16.11° C | 77% | 925.6 hPa | - | - | - | - |
| 1777600037 | 16.67° C | 76% | 925.9 hPa | - | - | - | - |
| 1777599136 | 16.67° C | 76% | 925.9 hPa | - | - | - | - |
| 1777598235 | 16.11° C | 76% | 925.9 hPa | - | - | - | - |
| 1777597334 | 16.11° C | 76% | 926 hPa | - | - | - | - |
| 1777596433 | 16.11° C | 75% | 926.1 hPa | - | - | - | - |
| 1777595532 | 16.11° C | 75% | 926.1 hPa | - | - | - | - |
| 1777594632 | 16.11° C | 74% | 926.1 hPa | - | - | - | - |
| 1777593731 | 16.11° C | 73% | 926.2 hPa | - | - | - | - |
| 1777592830 | 16.67° C | 72% | 926.1 hPa | - | - | - | - |
* Rain since midnight (hover to see other rain measurements)
** Current wind speed in m/s (hover to see current wind gust speed)